Time;durP1;ratioP1;P1;durP2;ratioP2;P2;SDS_P1;SDS_P2;PMS_P1;PMS_P2;Temp;Humidity;BMP_temperature;BMP_pressure;BME280_temperature;BME280_humidity;BME280_pressure;Samples;Min_cycle;Max_cycle;Signal;HPM_P1;HPM_P2
2023/11/02 00:00:15;;;;;;;13.63;2.38;;;10.30;99.90;;;;;;5014375;28;20042;-62
2023/11/02 00:02:42;;;;;;;15.32;2.20;;;10.40;99.90;;;;;;5014490;28;20046;-62
2023/11/02 00:05:09;;;;;;;10.90;2.55;;;10.40;99.90;;;;;;5014797;28;20482;-63
2023/11/02 00:07:36;;;;;;;16.65;2.20;;;10.50;99.90;;;;;;5014809;28;20467;-62
2023/11/02 00:10:03;;;;;;;18.83;3.25;;;10.60;99.90;;;;;;5014435;28;20038;-57
2023/11/02 00:12:30;;;;;;;11.15;2.28;;;10.60;99.90;;;;;;5014554;28;20044;-63
2023/11/02 00:14:57;;;;;;;16.70;2.55;;;10.60;99.90;;;;;;5014530;28;20061;-62
2023/11/02 00:17:24;;;;;;;9.80;2.00;;;10.60;99.90;;;;;;5014285;28;20053;-62
2023/11/02 00:19:51;;;;;;;12.38;2.30;;;10.60;99.90;;;;;;5014602;28;20056;-62
2023/11/02 00:22:17;;;;;;;13.25;2.50;;;10.60;99.90;;;;;;5014171;28;20123;-63
2023/11/02 00:24:47;;;;;;;14.68;2.92;;;10.70;99.90;;;;;;5014576;28;20081;-63
2023/11/02 00:27:14;;;;;;;11.32;2.00;;;10.70;99.90;;;;;;5014292;28;20463;-63
2023/11/02 00:29:41;;;;;;;13.68;3.17;;;10.70;99.90;;;;;;4996177;28;20045;-62
2023/11/02 00:32:08;;;;;;;11.70;2.25;;;10.70;99.90;;;;;;5014073;28;20038;-57
2023/11/02 00:34:39;;;;;;;14.23;2.22;;;10.80;99.90;;;;;;4996690;28;20038;-56
2023/11/02 00:37:07;;;;;;;11.40;2.17;;;10.80;99.90;;;;;;4996140;28;20057;-55
2023/11/02 00:39:33;;;;;;;16.00;2.85;;;10.80;99.90;;;;;;5013894;28;20107;-55
2023/11/02 00:42:01;;;;;;;21.10;3.10;;;10.80;99.90;;;;;;5013962;28;20188;-57
2023/11/02 00:44:28;;;;;;;16.50;2.72;;;10.90;99.90;;;;;;4995721;28;20042;-63
2023/11/02 00:46:55;;;;;;;10.32;2.20;;;10.90;99.90;;;;;;4995696;28;20424;-62
2023/11/02 00:49:21;;;;;;;12.18;3.03;;;10.90;99.90;;;;;;5013720;28;20060;-62
2023/11/02 00:51:48;;;;;;;9.05;2.10;;;10.90;99.90;;;;;;4995813;28;20100;-62
2023/11/02 00:54:15;;;;;;;11.27;2.60;;;10.90;99.90;;;;;;5013149;28;20092;-62
2023/11/02 00:56:42;;;;;;;10.93;2.10;;;11.00;99.90;;;;;;5013947;28;20140;-63
2023/11/02 00:59:09;;;;;;;12.65;2.17;;;11.00;99.90;;;;;;4995750;28;20092;-62
2023/11/02 01:01:36;;;;;;;9.07;1.92;;;11.00;99.90;;;;;;4996053;28;20069;-63
2023/11/02 01:04:03;;;;;;;10.60;2.20;;;11.00;99.90;;;;;;5013606;28;20042;-63
2023/11/02 01:06:30;;;;;;;11.88;2.55;;;11.00;99.90;;;;;;5013752;28;20403;-62
2023/11/02 01:08:57;;;;;;;13.48;2.53;;;11.00;99.90;;;;;;5013606;28;20109;-63
2023/11/02 01:11:25;;;;;;;8.73;2.10;;;11.00;99.90;;;;;;5013353;28;20050;-62
2023/11/02 01:13:53;;;;;;;12.40;2.40;;;11.00;99.90;;;;;;5013661;28;20045;-62
2023/11/02 01:16:20;;;;;;;12.73;2.42;;;11.00;99.90;;;;;;5013939;28;20053;-62
2023/11/02 01:18:47;;;;;;;9.70;2.55;;;11.00;99.90;;;;;;5013142;28;20041;-62
2023/11/02 01:21:13;;;;;;;12.05;2.75;;;11.00;99.90;;;;;;5013534;28;20046;-62
2023/11/02 01:23:41;;;;;;;12.90;1.95;;;11.00;99.90;;;;;;5013608;28;20046;-63
2023/11/02 01:26:08;;;;;;;13.05;2.20;;;10.90;99.90;;;;;;5013259;28;20046;-63
2023/11/02 01:28:35;;;;;;;9.48;2.30;;;10.90;99.90;;;;;;4995658;28;20395;-63
2023/11/02 01:31:01;;;;;;;10.48;2.40;;;10.90;99.90;;;;;;4995757;28;20414;-63
2023/11/02 01:33:29;;;;;;;10.25;2.22;;;10.90;99.90;;;;;;4995657;28;20046;-63
2023/11/02 01:35:56;;;;;;;8.38;1.95;;;10.90;99.90;;;;;;5028751;28;20042;-62
2023/11/02 01:38:23;;;;;;;15.55;2.72;;;10.90;99.90;;;;;;5012990;28;20429;-63
2023/11/02 01:40:49;;;;;;;16.42;3.13;;;10.90;99.90;;;;;;5013379;28;20124;-62
2023/11/02 01:43:16;;;;;;;14.25;2.30;;;10.90;99.90;;;;;;4995572;28;20042;-63
2023/11/02 01:45:43;;;;;;;10.55;1.92;;;10.90;99.90;;;;;;5013292;28;20076;-62
2023/11/02 01:48:10;;;;;;;11.27;2.15;;;11.00;99.90;;;;;;5013103;28;20483;-62
2023/11/02 01:50:37;;;;;;;13.13;2.30;;;11.00;99.90;;;;;;4995679;28;20066;-62
2023/11/02 01:53:04;;;;;;;16.98;3.20;;;11.00;99.90;;;;;;5013208;28;20108;-54
2023/11/02 01:55:32;;;;;;;11.23;2.63;;;11.00;99.90;;;;;;5013002;28;20042;-56
2023/11/02 01:57:58;;;;;;;11.40;2.60;;;11.00;99.90;;;;;;4995305;28;20041;-56
2023/11/02 02:00:26;;;;;;;14.82;2.72;;;11.00;99.90;;;;;;4995236;28;20499;-53
2023/11/02 02:02:53;;;;;;;16.00;2.88;;;11.00;99.90;;;;;;4995092;28;20491;-55
2023/11/02 02:05:20;;;;;;;10.20;2.00;;;11.00;99.90;;;;;;4998361;28;20061;-53
2023/11/02 02:07:46;;;;;;;19.10;2.38;;;11.10;99.90;;;;;;4998687;28;20449;-54
2023/11/02 02:10:15;;;;;;;15.60;2.53;;;11.10;99.90;;;;;;5016803;28;20034;-55
2023/11/02 02:12:46;;;;;;;14.02;2.88;;;11.10;99.90;;;;;;5016834;28;20566;-55
2023/11/02 02:15:12;;;;;;;17.15;2.92;;;11.10;99.90;;;;;;4999029;28;20549;-54
2023/11/02 02:17:39;;;;;;;14.25;2.58;;;11.20;99.90;;;;;;4998627;28;20498;-62
2023/11/02 02:20:06;;;;;;;10.57;2.38;;;11.20;99.90;;;;;;5016264;28;20042;-56
2023/11/02 02:22:34;;;;;;;13.77;2.63;;;11.20;99.90;;;;;;4998910;28;20406;-54
2023/11/02 02:25:00;;;;;;;11.55;2.45;;;11.20;99.90;;;;;;4999082;28;20048;-55
2023/11/02 02:27:28;;;;;;;14.20;2.47;;;11.10;99.90;;;;;;5016126;28;20426;-61
2023/11/02 02:29:55;;;;;;;14.38;2.60;;;11.10;99.90;;;;;;5016451;28;20191;-62
2023/11/02 02:32:22;;;;;;;12.77;2.95;;;11.10;99.90;;;;;;4998781;28;20052;-62
2023/11/02 02:34:49;;;;;;;14.43;2.72;;;11.10;99.90;;;;;;4998333;28;20038;-62
2023/11/02 02:37:16;;;;;;;15.63;2.72;;;11.10;99.90;;;;;;5016202;28;20046;-61
2023/11/02 02:39:43;;;;;;;11.93;2.70;;;11.20;99.90;;;;;;4998635;28;20046;-62
2023/11/02 02:42:10;;;;;;;13.88;2.83;;;11.20;99.90;;;;;;5016331;28;20044;-62
2023/11/02 02:44:37;;;;;;;14.32;3.10;;;11.20;99.90;;;;;;4998336;28;20046;-62
2023/11/02 02:47:04;;;;;;;18.40;2.63;;;11.30;99.90;;;;;;5031411;28;20046;-62
2023/11/02 02:49:31;;;;;;;17.67;3.08;;;11.30;99.90;;;;;;5015940;28;20044;-62
2023/11/02 02:51:57;;;;;;;17.73;3.05;;;11.30;99.90;;;;;;5016030;28;20040;-56
2023/11/02 02:54:24;;;;;;;19.98;3.50;;;11.30;99.90;;;;;;4998492;28;20078;-61
2023/11/02 02:56:51;;;;;;;25.13;3.53;;;11.30;99.90;;;;;;5015620;28;20042;-62
2023/11/02 02:59:18;;;;;;;24.35;3.25;;;11.20;99.90;;;;;;5015582;28;20041;-62
2023/11/02 03:01:45;;;;;;;12.07;2.38;;;11.10;99.90;;;;;;4998048;28;20034;-62
2023/11/02 03:04:11;;;;;;;12.35;1.92;;;11.00;99.90;;;;;;4998005;28;20038;-54
2023/11/02 03:06:38;;;;;;;9.68;2.00;;;10.90;99.90;;;;;;5015546;28;20042;-54
2023/11/02 03:09:05;;;;;;;9.43;2.00;;;10.80;99.90;;;;;;5015560;28;20100;-54
2023/11/02 03:11:32;;;;;;;6.03;1.10;;;10.70;99.90;;;;;;5015504;28;20038;-54
2023/11/02 03:13:58;;;;;;;5.03;0.93;;;10.40;99.90;;;;;;4997691;28;20530;-54
2023/11/02 03:16:26;;;;;;;7.68;0.90;;;10.10;99.90;;;;;;4996629;28;20050;-54
2023/11/02 03:18:53;;;;;;;7.85;0.93;;;10.00;99.90;;;;;;4997650;28;20046;-54
2023/11/02 03:21:20;;;;;;;7.32;1.13;;;9.90;99.90;;;;;;5015081;28;20042;-55
2023/11/02 03:23:48;;;;;;;10.15;1.42;;;9.90;99.90;;;;;;5015447;28;20046;-53
2023/11/02 03:26:15;;;;;;;10.98;1.80;;;9.90;99.90;;;;;;4998184;28;20386;-52
2023/11/02 03:28:42;;;;;;;14.05;2.38;;;9.90;99.90;;;;;;4997291;28;20042;-51
2023/11/02 03:31:09;;;;;;;19.50;2.33;;;10.00;99.90;;;;;;4997668;28;20394;-53
2023/11/02 03:33:36;;;;;;;10.07;1.80;;;10.10;99.90;;;;;;5015288;28;20038;-54
2023/11/02 03:36:03;;;;;;;8.02;1.60;;;10.20;99.90;;;;;;5014768;28;20065;-52
2023/11/02 03:38:29;;;;;;;10.55;1.90;;;10.20;99.90;;;;;;5014609;28;20372;-54
2023/11/02 03:40:56;;;;;;;12.02;1.80;;;10.10;99.90;;;;;;5015077;28;20386;-53
2023/11/02 03:43:23;;;;;;;6.30;1.33;;;10.20;99.90;;;;;;4997392;28;20116;-63
2023/11/02 03:45:50;;;;;;;8.63;1.40;;;10.10;99.90;;;;;;5014846;28;20046;-62
2023/11/02 03:48:16;;;;;;;7.65;1.25;;;10.00;99.90;;;;;;5014715;28;20403;-54
2023/11/02 03:50:43;;;;;;;4.32;1.10;;;10.00;99.90;;;;;;5014701;28;20495;-52
2023/11/02 03:53:10;;;;;;;4.57;0.80;;;9.90;99.90;;;;;;5014736;28;20046;-51
2023/11/02 03:55:37;;;;;;;4.32;1.15;;;9.80;99.90;;;;;;5014670;28;20172;-51
2023/11/02 03:58:04;;;;;;;5.95;1.10;;;9.80;99.90;;;;;;5014304;28;20049;-53
2023/11/02 04:00:31;;;;;;;7.15;1.30;;;9.80;99.90;;;;;;5014190;28;20050;-53
2023/11/02 04:02:59;;;;;;;5.63;0.98;;;9.80;99.90;;;;;;5014087;28;20092;-52
2023/11/02 04:05:29;;;;;;;4.03;0.80;;;9.70;99.90;;;;;;5014428;28;20066;-63
2023/11/02 04:07:56;;;;;;;4.28;0.70;;;9.60;99.90;;;;;;5014263;28;20073;-62
2023/11/02 04:10:23;;;;;;;4.95;1.15;;;9.60;99.90;;;;;;5014302;28;20037;-63
2023/11/02 04:12:49;;;;;;;6.75;1.00;;;9.50;99.90;;;;;;4996805;28;20496;-62
2023/11/02 04:15:16;;;;;;;3.38;0.82;;;9.50;99.90;;;;;;5014512;28;20044;-63
2023/11/02 04:17:43;;;;;;;4.80;0.90;;;9.50;99.90;;;;;;5014405;28;20053;-53
2023/11/02 04:20:10;;;;;;;5.35;1.00;;;9.40;99.90;;;;;;5014434;28;20061;-49
2023/11/02 04:22:37;;;;;;;5.38;0.93;;;9.50;99.90;;;;;;4996592;28;20100;-51
2023/11/02 04:25:03;;;;;;;7.88;1.30;;;9.50;99.90;;;;;;5014583;28;20406;-53
2023/11/02 04:27:30;;;;;;;8.95;1.55;;;9.50;99.90;;;;;;5013994;28;20042;-54
2023/11/02 04:29:57;;;;;;;5.75;0.93;;;9.50;99.90;;;;;;5014175;28;20044;-54
2023/11/02 04:32:24;;;;;;;7.05;1.38;;;9.50;99.90;;;;;;5013865;28;20120;-54
2023/11/02 04:34:51;;;;;;;5.72;1.10;;;9.50;99.90;;;;;;5014177;28;20081;-54
2023/11/02 04:37:17;;;;;;;5.90;0.90;;;9.50;99.90;;;;;;5013319;28;20042;-51
2023/11/02 04:39:44;;;;;;;5.18;1.10;;;9.60;99.90;;;;;;5012920;28;20054;-62
2023/11/02 04:42:11;;;;;;;10.18;1.80;;;9.60;99.90;;;;;;5014027;28;20357;-53
2023/11/02 04:44:40;;;;;;;11.38;2.00;;;9.60;99.90;;;;;;5013715;28;20076;-54
2023/11/02 04:47:07;;;;;;;17.83;2.75;;;9.60;99.90;;;;;;5014001;28;20081;-55
2023/11/02 04:49:34;;;;;;;18.58;2.92;;;9.60;99.90;;;;;;5013926;28;20041;-53
2023/11/02 04:52:02;;;;;;;20.35;3.05;;;9.70;99.90;;;;;;5014057;28;20372;-51
2023/11/02 04:54:29;;;;;;;19.58;3.38;;;9.70;99.90;;;;;;5013665;28;20121;-55
2023/11/02 04:56:56;;;;;;;21.92;3.00;;;9.80;99.90;;;;;;5013948;28;20063;-56
2023/11/02 04:59:23;;;;;;;19.88;3.65;;;9.80;99.90;;;;;;5013561;28;20119;-54
2023/11/02 05:01:49;;;;;;;16.35;3.10;;;9.90;99.90;;;;;;5013606;28;20038;-53
2023/11/02 05:04:19;;;;;;;23.48;3.70;;;9.90;99.90;;;;;;4996374;28;20049;-55
2023/11/02 05:06:49;;;;;;;22.02;3.08;;;9.90;99.90;;;;;;5013901;28;20049;-53
2023/11/02 05:09:16;;;;;;;22.77;4.03;;;9.90;99.90;;;;;;4995329;28;20140;-56
2023/11/02 05:11:43;;;;;;;22.60;3.65;;;10.00;99.90;;;;;;5013287;28;20034;-63
2023/11/02 05:14:10;;;;;;;21.40;3.40;;;10.00;99.90;;;;;;5013786;28;20471;-63
2023/11/02 05:16:36;;;;;;;23.48;4.30;;;10.10;99.90;;;;;;5013445;28;20034;-55
2023/11/02 05:19:03;;;;;;;19.27;3.63;;;10.10;99.90;;;;;;5013319;28;20073;-56
2023/11/02 05:21:31;;;;;;;22.58;3.95;;;10.10;99.90;;;;;;5013308;28;20553;-53
2023/11/02 05:23:57;;;;;;;22.13;4.50;;;10.10;99.90;;;;;;4995905;28;20049;-52
2023/11/02 05:26:24;;;;;;;21.63;3.20;;;10.10;99.90;;;;;;4996096;28;20110;-53
2023/11/02 05:28:51;;;;;;;26.40;3.75;;;10.10;99.90;;;;;;5013254;28;20136;-55
2023/11/02 05:31:18;;;;;;;24.05;3.25;;;10.10;99.90;;;;;;5013351;28;20069;-54
2023/11/02 05:33:45;;;;;;;25.67;3.67;;;10.20;99.90;;;;;;5013259;28;20045;-54
2023/11/02 05:36:15;;;;;;;19.17;3.15;;;10.20;99.90;;;;;;5013530;28;20049;-54
2023/11/02 05:38:42;;;;;;;23.75;3.83;;;10.10;99.90;;;;;;5013573;28;20077;-53
2023/11/02 05:41:08;;;;;;;16.73;2.97;;;10.10;99.90;;;;;;5017341;28;20050;-56
2023/11/02 05:43:35;;;;;;;13.57;2.75;;;10.10;99.90;;;;;;5017451;28;20041;-56
2023/11/02 05:46:03;;;;;;;16.30;2.70;;;10.10;99.90;;;;;;5017435;28;20042;-55
2023/11/02 05:48:30;;;;;;;15.90;3.17;;;10.10;99.90;;;;;;5017160;28;20485;-51
2023/11/02 05:50:57;;;;;;;12.30;2.72;;;10.10;99.90;;;;;;5017077;28;20045;-50
2023/11/02 05:53:23;;;;;;;12.45;2.10;;;10.10;99.90;;;;;;5017273;28;20056;-54
2023/11/02 05:55:50;;;;;;;11.20;2.35;;;10.10;99.90;;;;;;5017090;28;20049;-51
2023/11/02 05:58:17;;;;;;;13.82;2.88;;;10.10;99.90;;;;;;5016773;28;20068;-50
2023/11/02 06:00:44;;;;;;;12.43;2.13;;;10.20;99.90;;;;;;4999810;28;20453;-51
2023/11/02 06:03:10;;;;;;;14.05;2.20;;;10.20;99.90;;;;;;5017018;28;20467;-53
2023/11/02 06:05:37;;;;;;;10.50;2.55;;;10.20;99.90;;;;;;5016909;28;20038;-51
2023/11/02 06:08:04;;;;;;;12.98;1.88;;;10.20;99.90;;;;;;5016776;28;20042;-53
2023/11/02 06:10:31;;;;;;;10.57;2.10;;;10.20;99.90;;;;;;5017033;28;20045;-55
2023/11/02 06:12:58;;;;;;;13.40;2.13;;;10.20;99.90;;;;;;5016796;28;20049;-51
2023/11/02 06:15:24;;;;;;;10.02;1.80;;;10.20;99.90;;;;;;5016650;28;20049;-52
2023/11/02 06:17:52;;;;;;;9.48;1.60;;;10.20;99.90;;;;;;5016414;28;20069;-55
2023/11/02 06:20:19;;;;;;;8.95;1.98;;;10.20;99.90;;;;;;5016384;28;20061;-51
2023/11/02 06:22:46;;;;;;;17.40;2.88;;;10.20;99.90;;;;;;5016521;28;20038;-54
2023/11/02 06:25:12;;;;;;;12.35;2.38;;;10.30;99.90;;;;;;5016620;28;20038;-51
2023/11/02 06:27:42;;;;;;;9.38;2.13;;;10.30;99.90;;;;;;5016165;28;20054;-54
2023/11/02 06:30:09;;;;;;;9.02;1.63;;;10.30;99.90;;;;;;4998901;28;20054;-53
2023/11/02 06:32:36;;;;;;;13.13;2.00;;;10.40;99.90;;;;;;5016166;28;20038;-52
2023/11/02 06:35:03;;;;;;;9.82;1.67;;;10.40;99.90;;;;;;5016351;28;20065;-56
2023/11/02 06:37:30;;;;;;;9.57;1.67;;;10.40;99.90;;;;;;5016258;28;20042;-55
2023/11/02 06:39:56;;;;;;;10.65;1.70;;;10.40;99.90;;;;;;5016398;28;20061;-63
2023/11/02 06:42:27;;;;;;;11.70;1.67;;;10.40;99.90;;;;;;5016185;28;20479;-64
2023/11/02 06:44:54;;;;;;;11.02;1.77;;;10.50;99.90;;;;;;5016602;28;20066;-64
2023/11/02 06:47:21;;;;;;;9.05;1.65;;;10.50;99.90;;;;;;5016138;28;20471;-63
2023/11/02 06:49:48;;;;;;;8.32;1.60;;;10.40;99.90;;;;;;5015619;28;20484;-64
2023/11/02 06:52:15;;;;;;;8.35;1.92;;;10.50;99.90;;;;;;5015477;28;20054;-64
2023/11/02 06:54:44;;;;;;;12.85;2.20;;;10.50;99.90;;;;;;5015924;28;20060;-65
2023/11/02 06:57:13;;;;;;;9.27;2.08;;;10.60;99.90;;;;;;5015925;28;20062;-64
2023/11/02 06:59:40;;;;;;;15.15;2.70;;;10.60;99.90;;;;;;5015773;28;20388;-64
2023/11/02 07:02:07;;;;;;;16.42;2.72;;;10.60;99.90;;;;;;5015333;28;20050;-64
2023/11/02 07:04:34;;;;;;;17.60;2.92;;;10.60;99.90;;;;;;5015325;28;20449;-64
2023/11/02 07:07:01;;;;;;;14.18;2.75;;;10.60;99.90;;;;;;5015161;28;20041;-56
2023/11/02 07:09:28;;;;;;;15.70;2.78;;;10.60;99.90;;;;;;5015418;28;20038;-55
2023/11/02 07:11:55;;;;;;;14.95;2.50;;;10.70;99.90;;;;;;5015161;28;20093;-53
2023/11/02 07:14:22;;;;;;;19.85;2.97;;;10.70;99.90;;;;;;5015066;28;20037;-63
2023/11/02 07:16:49;;;;;;;20.70;3.30;;;10.70;99.90;;;;;;5014998;28;20069;-63
2023/11/02 07:19:16;;;;;;;10.80;2.70;;;10.70;99.90;;;;;;5014796;28;20050;-63
2023/11/02 07:21:43;;;;;;;13.52;2.78;;;10.70;99.90;;;;;;5015343;28;20547;-63
2023/11/02 07:24:09;;;;;;;16.80;2.92;;;10.70;99.90;;;;;;5015047;28;20489;-63
2023/11/02 07:26:36;;;;;;;15.20;2.92;;;10.70;99.90;;;;;;5015488;28;20073;-63
2023/11/02 07:29:03;;;;;;;18.23;3.15;;;10.80;99.90;;;;;;5014852;28;20045;-63
2023/11/02 07:31:30;;;;;;;24.05;3.40;;;10.70;99.90;;;;;;5015060;28;20104;-63
2023/11/02 07:33:57;;;;;;;16.63;3.28;;;10.70;99.90;;;;;;5014995;28;20042;-63
2023/11/02 07:36:24;;;;;;;12.45;2.67;;;10.70;99.90;;;;;;4997451;28;20046;-63
2023/11/02 07:38:52;;;;;;;14.18;2.95;;;10.70;99.90;;;;;;4997302;28;20045;-63
2023/11/02 07:41:20;;;;;;;16.92;3.17;;;10.70;99.90;;;;;;5014741;28;20038;-55
2023/11/02 07:43:47;;;;;;;16.77;2.58;;;10.70;99.90;;;;;;5014837;28;20046;-53
2023/11/02 07:46:14;;;;;;;12.15;3.03;;;10.60;99.90;;;;;;5014892;28;20073;-56
2023/11/02 07:48:41;;;;;;;13.90;2.53;;;10.60;99.90;;;;;;4996916;28;20037;-55
2023/11/02 07:51:08;;;;;;;12.35;2.17;;;10.60;99.90;;;;;;5015129;28;20489;-53
2023/11/02 07:53:35;;;;;;;12.80;2.53;;;10.60;99.90;;;;;;5014919;28;20534;-54
2023/11/02 07:56:01;;;;;;;13.48;2.47;;;10.50;99.90;;;;;;5014800;28;20432;-54
2023/11/02 07:58:28;;;;;;;13.85;2.50;;;10.60;99.90;;;;;;5014654;28;20046;-54
2023/11/02 08:00:55;;;;;;;9.40;2.28;;;10.50;99.90;;;;;;5014978;28;20443;-53
2023/11/02 08:03:22;;;;;;;11.25;2.00;;;10.50;99.90;;;;;;5014033;28;20668;-56
2023/11/02 08:05:48;;;;;;;11.73;1.83;;;10.50;99.90;;;;;;5014290;28;20459;-56
2023/11/02 08:08:15;;;;;;;7.95;1.92;;;10.60;99.90;;;;;;5014122;28;20052;-53
2023/11/02 08:10:42;;;;;;;9.13;2.28;;;10.60;99.90;;;;;;5014019;28;20107;-54
2023/11/02 08:13:09;;;;;;;14.07;2.50;;;10.60;99.90;;;;;;5014028;28;20121;-56
2023/11/02 08:15:36;;;;;;;12.80;2.47;;;10.70;99.90;;;;;;5014186;28;20042;-55
2023/11/02 08:18:03;;;;;;;11.95;2.60;;;10.70;99.90;;;;;;5013963;28;20038;-53
2023/11/02 08:20:30;;;;;;;10.93;2.28;;;10.70;99.90;;;;;;5014494;28;20034;-54
2023/11/02 08:22:56;;;;;;;12.98;3.10;;;10.70;99.90;;;;;;5014113;28;20091;-55
2023/11/02 08:25:23;;;;;;;13.07;2.30;;;10.60;99.90;;;;;;4996976;28;20045;-54
2023/11/02 08:27:57;;;;;;;11.93;2.53;;;10.60;99.90;;;;;;5013992;28;20391;-54
2023/11/02 08:30:24;;;;;;;15.48;2.95;;;10.60;99.90;;;;;;5013851;28;20076;-54
2023/11/02 08:32:50;;;;;;;13.20;2.40;;;10.60;99.90;;;;;;5014314;28;20545;-53
2023/11/02 08:35:18;;;;;;;13.57;2.72;;;10.70;99.90;;;;;;5014201;28;20424;-64
2023/11/02 08:37:44;;;;;;;12.55;3.17;;;10.60;99.90;;;;;;5013876;28;20037;-63
2023/11/02 08:40:11;;;;;;;13.90;3.10;;;10.70;99.90;;;;;;5014043;28;20041;-51
2023/11/02 08:42:38;;;;;;;18.50;3.25;;;10.70;99.90;;;;;;5014115;28;20100;-62
2023/11/02 08:45:05;;;;;;;13.32;3.45;;;10.70;99.90;;;;;;5014113;28;20055;-52
2023/11/02 08:47:31;;;;;;;10.65;2.90;;;10.70;99.90;;;;;;5013848;28;20156;-53
2023/11/02 08:49:58;;;;;;;17.58;3.17;;;10.80;99.90;;;;;;5013962;28;20050;-55
2023/11/02 08:52:25;;;;;;;17.67;3.22;;;10.80;99.90;;;;;;5013741;28;20344;-51
2023/11/02 08:54:52;;;;;;;12.68;2.97;;;10.70;99.90;;;;;;4996325;28;20068;-63
2023/11/02 08:57:19;;;;;;;16.35;3.17;;;10.70;99.90;;;;;;5013659;28;20046;-62
2023/11/02 08:59:46;;;;;;;12.65;3.08;;;10.70;99.90;;;;;;5013855;28;20436;-63
2023/11/02 09:02:13;;;;;;;14.70;3.70;;;10.70;99.90;;;;;;5013705;28;20479;-63
2023/11/02 09:04:40;;;;;;;15.27;3.20;;;10.80;99.90;;;;;;5013831;28;20053;-65
2023/11/02 09:07:07;;;;;;;10.45;3.30;;;10.90;99.90;;;;;;5013655;28;20491;-64
2023/11/02 09:09:34;;;;;;;14.02;3.65;;;10.90;99.90;;;;;;5013335;28;20475;-64
2023/11/02 09:12:01;;;;;;;13.27;3.83;;;10.90;99.90;;;;;;5013633;28;20042;-64
2023/11/02 09:14:28;;;;;;;14.15;4.35;;;10.90;99.90;;;;;;5012550;28;20066;-64
2023/11/02 09:16:55;;;;;;;13.48;4.32;;;11.00;99.90;;;;;;5013463;28;20119;-64
2023/11/02 09:19:22;;;;;;;12.23;4.32;;;11.10;99.90;;;;;;5013457;28;20049;-64
2023/11/02 09:21:49;;;;;;;14.70;5.07;;;11.10;99.90;;;;;;5013664;28;20045;-65
2023/11/02 09:24:16;;;;;;;14.70;4.78;;;11.20;99.90;;;;;;5013327;28;20070;-63
2023/11/02 09:26:45;;;;;;;14.98;5.32;;;11.30;99.90;;;;;;5013514;28;20045;-64
2023/11/02 09:29:12;;;;;;;13.70;4.72;;;11.20;99.90;;;;;;4995753;28;20121;-64
2023/11/02 09:31:41;;;;;;;11.80;4.72;;;11.20;99.90;;;;;;5013486;28;20557;-52
2023/11/02 09:34:25;;;;;;;13.50;4.55;;;11.10;99.90;;;;;;5013780;28;20133;-54
2023/11/02 09:36:52;;;;;;;11.50;4.40;;;11.00;99.90;;;;;;5013587;28;20066;-53
2023/11/02 09:39:19;;;;;;;9.43;4.55;;;11.10;99.90;;;;;;5013138;28;20144;-53
2023/11/02 09:41:45;;;;;;;8.13;3.58;;;11.00;99.90;;;;;;4995979;28;20089;-55
2023/11/02 09:44:13;;;;;;;8.18;3.10;;;11.00;99.90;;;;;;5013390;28;20072;-63
2023/11/02 09:46:40;;;;;;;13.10;3.88;;;11.00;99.90;;;;;;5013102;28;20056;-64
2023/11/02 09:49:07;;;;;;;5.45;2.85;;;11.00;99.90;;;;;;5013335;28;20045;-64
2023/11/02 09:51:34;;;;;;;7.28;3.00;;;11.00;99.90;;;;;;4996139;28;20042;-63
2023/11/02 09:54:01;;;;;;;9.20;3.30;;;10.90;99.90;;;;;;5013186;28;20530;-64
2023/11/02 09:56:28;;;;;;;5.15;2.50;;;10.90;99.90;;;;;;4995868;28;20060;-64
2023/11/02 09:58:56;;;;;;;7.97;2.60;;;10.90;99.90;;;;;;5012810;28;20544;-63
2023/11/02 10:01:23;;;;;;;7.00;2.90;;;10.80;99.90;;;;;;5012931;28;20064;-63
2023/11/02 10:03:50;;;;;;;5.82;2.85;;;10.90;99.90;;;;;;5013094;28;20454;-63
2023/11/02 10:06:17;;;;;;;5.28;2.13;;;10.80;99.90;;;;;;5012892;28;20050;-63
2023/11/02 10:08:44;;;;;;;4.80;1.85;;;10.70;99.90;;;;;;5013100;28;20056;-63
2023/11/02 10:11:11;;;;;;;6.07;2.17;;;10.70;99.90;;;;;;4995699;28;20034;-64
2023/11/02 10:13:38;;;;;;;6.75;1.90;;;10.70;99.90;;;;;;5012910;28;20066;-64
2023/11/02 10:16:05;;;;;;;5.20;1.70;;;10.70;99.90;;;;;;4995306;28;20038;-54
2023/11/02 10:18:32;;;;;;;5.18;1.67;;;10.70;99.90;;;;;;5013088;28;20045;-56
2023/11/02 10:20:59;;;;;;;4.32;1.33;;;10.80;99.90;;;;;;5013216;28;20046;-55
2023/11/02 10:23:26;;;;;;;4.45;1.38;;;10.70;99.90;;;;;;5013171;28;20073;-64
2023/11/02 10:25:52;;;;;;;3.08;1.30;;;10.80;99.90;;;;;;5014983;28;20037;-64
2023/11/02 10:28:19;;;;;;;3.28;1.58;;;10.70;99.90;;;;;;5016219;28;20045;-64
2023/11/02 10:30:46;;;;;;;4.43;1.60;;;10.70;99.90;;;;;;5016298;28;20437;-64
2023/11/02 10:33:14;;;;;;;3.78;1.55;;;10.80;99.90;;;;;;4998477;28;20475;-64
2023/11/02 10:35:41;;;;;;;3.00;1.55;;;10.80;99.90;;;;;;5016125;28;20133;-63
2023/11/02 10:38:09;;;;;;;4.05;2.35;;;10.80;99.90;;;;;;5015699;28;20131;-64
2023/11/02 10:40:36;;;;;;;3.85;1.70;;;10.80;99.90;;;;;;5016426;28;20387;-63
2023/11/02 10:43:03;;;;;;;5.50;1.52;;;10.80;99.90;;;;;;5016136;28;20108;-64
2023/11/02 10:45:30;;;;;;;5.53;1.52;;;10.80;99.90;;;;;;5016425;28;20046;-63
2023/11/02 10:47:57;;;;;;;4.85;1.73;;;10.80;99.90;;;;;;5016106;28;20045;-63
2023/11/02 10:50:24;;;;;;;5.82;1.83;;;10.80;99.90;;;;;;5015785;28;20037;-63
2023/11/02 10:52:51;;;;;;;6.22;1.55;;;10.80;99.90;;;;;;5015759;28;20112;-63
2023/11/02 10:55:18;;;;;;;5.30;1.48;;;10.70;99.90;;;;;;5016344;28;20104;-64
2023/11/02 10:57:46;;;;;;;8.23;1.58;;;10.70;99.90;;;;;;5015588;28;20096;-56
2023/11/02 11:00:13;;;;;;;4.78;1.55;;;10.70;99.90;;;;;;5016073;28;20487;-56
2023/11/02 11:02:41;;;;;;;7.60;1.73;;;10.70;99.90;;;;;;5015636;28;20383;-57
2023/11/02 11:05:10;;;;;;;8.63;1.50;;;10.70;99.90;;;;;;4998367;28;20053;-55
2023/11/02 11:07:37;;;;;;;6.28;1.70;;;10.70;99.90;;;;;;5015594;28;20046;-55
2023/11/02 11:10:04;;;;;;;9.98;1.75;;;10.60;99.90;;;;;;5015782;28;20056;-57
2023/11/02 11:12:32;;;;;;;8.30;2.30;;;10.60;99.90;;;;;;5015705;28;20046;-56
2023/11/02 11:14:59;;;;;;;5.05;1.58;;;10.60;99.90;;;;;;5015675;28;20034;-55
2023/11/02 11:17:27;;;;;;;5.90;1.70;;;10.60;99.90;;;;;;5015076;28;20086;-54
2023/11/02 11:19:55;;;;;;;4.40;1.48;;;10.50;99.90;;;;;;5015369;28;20050;-54
2023/11/02 11:22:22;;;;;;;8.35;1.63;;;10.50;99.90;;;;;;4997797;28;20100;-65
2023/11/02 11:24:48;;;;;;;4.57;1.55;;;10.40;99.90;;;;;;5015294;28;20050;-64
2023/11/02 11:27:15;;;;;;;3.22;1.10;;;10.50;99.90;;;;;;5015217;28;20038;-64
2023/11/02 11:29:42;;;;;;;6.68;1.48;;;10.50;99.90;;;;;;5014689;28;20038;-63
2023/11/02 11:32:09;;;;;;;3.50;1.08;;;10.40;99.90;;;;;;5015068;28;20120;-64
2023/11/02 11:34:37;;;;;;;3.72;1.20;;;10.40;99.90;;;;;;5014879;28;20041;-64
2023/11/02 11:37:05;;;;;;;4.85;1.00;;;10.40;99.90;;;;;;5014196;28;20460;-64
2023/11/02 11:39:31;;;;;;;4.53;0.98;;;10.40;99.90;;;;;;5014459;28;20057;-64
2023/11/02 11:41:59;;;;;;;2.65;1.00;;;10.40;99.90;;;;;;5015089;28;20117;-63
2023/11/02 11:44:25;;;;;;;2.42;0.93;;;10.40;99.90;;;;;;4997492;28;20120;-63
2023/11/02 11:46:52;;;;;;;4.07;1.02;;;10.30;99.90;;;;;;5015063;28;20057;-64
2023/11/02 11:49:20;;;;;;;2.58;0.70;;;10.30;99.90;;;;;;5014680;28;20096;-63
2023/11/02 11:51:49;;;;;;;2.10;0.98;;;10.30;99.90;;;;;;5030199;28;20107;-63
2023/11/02 11:54:17;;;;;;;5.13;0.90;;;10.30;99.90;;;;;;5015107;28;20100;-63
2023/11/02 11:56:46;;;;;;;4.07;1.20;;;10.30;99.90;;;;;;5014677;28;20096;-63
2023/11/02 11:59:13;;;;;;;4.63;1.20;;;10.30;99.90;;;;;;5014566;28;20480;-63
2023/11/02 12:01:40;;;;;;;3.92;1.13;;;10.30;99.90;;;;;;5014603;28;20079;-63
2023/11/02 12:04:07;;;;;;;3.08;1.10;;;10.30;99.90;;;;;;5014549;28;20049;-55
2023/11/02 12:06:35;;;;;;;5.88;1.48;;;10.30;99.90;;;;;;5014513;28;20049;-55
2023/11/02 12:09:03;;;;;;;3.55;1.27;;;10.30;99.90;;;;;;5014234;28;20084;-55
2023/11/02 12:11:30;;;;;;;3.30;1.20;;;10.20;99.90;;;;;;5014586;28;20045;-56
2023/11/02 12:14:00;;;;;;;3.45;1.20;;;10.20;99.90;;;;;;5014565;28;20038;-54
2023/11/02 12:16:29;;;;;;;5.88;1.15;;;10.20;99.90;;;;;;5013958;28;20072;-53
2023/11/02 12:18:56;;;;;;;5.93;1.10;;;10.20;99.90;;;;;;5014346;28;20411;-56
2023/11/02 12:21:24;;;;;;;4.20;0.95;;;10.30;99.90;;;;;;5014185;28;20046;-54
2023/11/02 12:23:51;;;;;;;3.70;1.10;;;10.30;99.90;;;;;;5014267;28;20042;-55
2023/11/02 12:26:18;;;;;;;4.63;1.10;;;10.30;99.90;;;;;;5014066;28;20046;-57
2023/11/02 12:28:45;;;;;;;3.25;0.80;;;10.30;99.90;;;;;;4996293;28;20050;-57
2023/11/02 12:31:15;;;;;;;4.57;1.00;;;10.30;99.90;;;;;;5014416;28;20490;-55
2023/11/02 12:33:42;;;;;;;5.30;1.20;;;10.40;99.90;;;;;;5014581;28;20048;-55
2023/11/02 12:36:09;;;;;;;4.07;1.08;;;10.40;99.90;;;;;;5014082;28;20042;-52
2023/11/02 12:38:36;;;;;;;2.90;0.88;;;10.40;99.90;;;;;;4983468;28;20538;-53
2023/11/02 12:41:04;;;;;;;2.47;0.93;;;10.50;99.90;;;;;;4975017;28;20122;-55